ZIMOWY RUNMAGEDDON REKRUT WARSZAWA

Organizator/ Organizer:
Extreme Events, Runmageddon
Data/ Date:
2018-01-13
Miejsce/ Place:
Warszawa
Dystans/ Distance:
6 km
Zgłoszonych/ Registered:
1546
Wystartowało/ Started:
1434
Nie ukończyło/ Not finished:
25
Ukończyło/ Finished:
1409
Na trasie/ On track:
0

Klasyfikacja/ Classiffication: 10:15

Wyniki nieoficjalne !!!
Pełne wyniki/ Full Results : PDF | CSV
Wyniki uproszczone/ Simple results : PDF | PDF2 | CSV
 
Klasyfikacje w punktach pomiarowych/ Classification for time points: Meta

Msc/ RnkZawodnik/ NameNumer/ BibKlub/ TeamMiejscowość/ CityKraj/ CountryKategoria/ CategoryMkat/ CatRnkK/M/ W/MSeriaCzas
netto
6km
Czas
brutto
6km
Różn/ GapTempo
min/km
Tempo
km/h
       
1WÓJCIK Karol 857Open Mężczyzn15M 5510:1500:53:14.8500:53:14.85 8:526.8
2SIOK Tomasz 850Open Mężczyzn17M 5910:1500:53:38.9500:53:38.95+00:00:248:566.7
3KAJDEWICZ Adam 821Open Mężczyzn33M 8410:1500:56:52.7500:56:52.75+00:03:379:286.3
4BURAK Łukasz 790MONKEYS' TEAMOpen Mężczyzn36M 8810:1500:57:08.7000:57:08.70+00:03:539:316.3
5ZAJKO Michał 762CROSSFIT Z16Open Mężczyzn52M 10910:1500:59:04.3000:59:04.30+00:05:499:506.1
6KWIETNIEWSKI Piotr 794MONKEYS' TEAMOpen Mężczyzn59M 12010:1500:59:30.4000:59:30.40+00:06:159:556.1
7KOSIŃSKI Jakub 773HUSARIA RACE TEAMOpen Mężczyzn65M 12810:1501:00:09.4501:00:09.45+00:06:5410:016
8PURWIN Tomasz 847Open Mężczyzn66M 12910:1501:00:18.2501:00:18.25+00:07:0310:036
9GÓRNIAK Bartek 791MONKEYS' TEAMOpen Mężczyzn81M 15110:1501:01:12.3501:01:12.35+00:07:5710:125.9
10ZIÓŁKOWSKI Przemysław 801MONKEYS' TEAMOpen Mężczyzn89M 16210:1501:01:44.3501:01:44.35+00:08:2910:175.8
11DEC Marek 816Open Mężczyzn98M 17310:1501:02:00.8001:02:00.80+00:08:4510:205.8
12KROL Marcin 759CROSSFIT Z16Open Mężczyzn110M 19710:1501:03:35.5501:03:35.55+00:10:2010:355.7
13BODIS Peter 812Open Masters Mężczyzn12M 20410:1501:03:56.4001:03:56.40+00:10:4110:395.6
14RUSINEK Witosław 849Open Mężczyzn121M 21210:1501:04:37.2001:04:37.20+00:11:2210:465.6
15KRAMER Robert 827Open Mężczyzn130M 22310:1501:05:31.8001:05:31.80+00:12:1610:555.5
16KOPEĆ Sebastian 1499SKILLS PAY BILLSOpen Mężczyzn133M 22710:1501:05:46.8001:05:46.80+00:12:3110:575.5
17CHOROŚ Michał 814Open Mężczyzn143M 23910:1501:06:41.2501:06:41.25+00:13:2611:065.4
18LULIŃSKI Mateusz 831Open Mężczyzn154M 25210:1501:07:16.9001:07:16.90+00:14:0211:125.4
19MAJCHERSKI Piotr 760CROSSFIT Z16Open Masters Mężczyzn18M 25710:1501:07:29.2001:07:29.20+00:14:1411:145.3
20SZCZECH Szymon 752ALKO NINJAOpen Mężczyzn168M 26810:1501:07:56.9501:07:56.95+00:14:4211:195.3
21SZYMAŃSKI Lew 853Open Mężczyzn169M 26910:1501:08:04.0501:08:04.05+00:14:4911:205.3
22KRASOWSKI Mariusz 804OUTDOOR TRAININGOpen Masters Mężczyzn24M 30210:1501:09:36.3501:09:36.35+00:16:2111:365.2
23BŁANIK Michał 811Open Mężczyzn208M 31510:1501:09:46.5001:09:46.50+00:16:3111:375.2
24KUBIENIEC Łukasz 828Open Mężczyzn209M 31610:1501:09:46.5501:09:46.55+00:16:3111:375.2
25MACHLAŃSKI Łukasz 832Open Mężczyzn211M 31810:1501:09:47.0501:09:47.05+00:16:3211:375.2
26PRUS Maciej 786ŁOKIEĆ ALKANTARAOpen Mężczyzn220M 32810:1501:10:21.0501:10:21.05+00:17:0611:435.1
27RAWSKI Artur 1051Open Mężczyzn223M 33110:1501:10:27.6501:10:27.65+00:17:1211:445.1
28ORYBKIEWICZ Marcin 1046Open Mężczyzn224M 33210:1501:10:27.7501:10:27.75+00:17:1211:445.1
29WINIAREK Marcin 855Open Mężczyzn225M 33310:1501:10:28.1501:10:28.15+00:17:1311:445.1
30DODA Filip 817Open Mężczyzn226M 33410:1501:10:28.3501:10:28.35+00:17:1311:445.1
31JEŻYCKI Orest 769HAYABUSA PIOTRKÓW Open Mężczyzn234M 34510:1501:10:54.8501:10:54.85+00:17:4011:495.1
32RAKOWSKI Patryk 848Open Mężczyzn236M 34710:1501:10:57.6001:10:57.60+00:17:4211:495.1
33WIELĄDEK Arkadiusz 854Open Mężczyzn242M 35310:1501:11:09.2001:11:09.20+00:17:5411:515.1
34PODOLAK Rafal 622Open Mężczyzn282M 39510:1501:12:47.8501:12:47.85+00:19:3312:074.9
35KUCZYŃSKI Paweł 1459BIGYELLOWFOOT ADVENTURE TEAMOpen Mężczyzn284M 39710:1501:12:49.1501:12:49.15+00:19:3412:084.9
36LANGOWSKI Marcin 830Open Mężczyzn310M 42710:1501:13:57.4501:13:57.45+00:20:4212:194.9
37NOWICKI Marcin 750ALKO NINJAOpen Mężczyzn335M 45610:1501:14:54.2501:14:54.25+00:21:3912:294.8
38RUTKOWSKI Roman 751ALKO NINJAOpen Mężczyzn336M 45710:1501:14:54.5001:14:54.50+00:21:3912:294.8
39ŁAWRENCZUK Paweł 787ŁOWICZ TEAMOpen Mężczyzn352M 47610:1501:15:40.2001:15:40.20+00:22:2512:364.8
40KĘDZIOREK Paulina 824Open Kobiet8K 1510:1501:15:57.6501:15:57.65+00:22:4212:394.7
41BAJDAŁA Robert 779JEDZIEMY Z TYM KOKSEMOpen Mężczyzn363M 48710:1501:16:07.7001:16:07.70+00:22:5212:414.7
42ZAREMBA Rafał 805OUTDOOR TRAININGOpen Mężczyzn369M 49410:1501:16:29.1501:16:29.15+00:23:1412:444.7
43PAWŁOWSKI Tomasz 842Open Mężczyzn376M 50310:1501:16:45.3001:16:45.30+00:23:3012:474.7
44LIMANOWSKA Olga 806TRENER24H.COM.PLOpen Kobiet13K 2110:1501:17:08.2001:17:08.20+00:23:5312:514.7
45RUDZKI Michał 761CROSSFIT Z16Open Mężczyzn409M 53910:1501:17:56.8001:17:56.80+00:24:4112:594.6
46WIŚNIEWSKI Lukasz 1591Open Mężczyzn435M 56910:1501:19:19.9501:19:19.95+00:26:0513:134.5
47STACHEWICZ Iwona 953Open Kobiet23K 3110:1501:19:27.5501:19:27.55+00:26:1213:144.5
48TEPER Bartosz 754ALKOHIMALAIŚCI !Open Mężczyzn450M 58810:1501:20:09.4501:20:09.45+00:26:5413:214.5
49MIELCZAREK Adam 838Open Masters Mężczyzn50M 58910:1501:20:11.8001:20:11.80+00:26:5613:214.5
50MIELCZAREK Patryk 839Open Mężczyzn451M 59010:1501:20:11.8501:20:11.85+00:26:5713:214.5
51ANTOSZ Mateusz 753ALKOHIMALAIŚCI !Open Mężczyzn454M 59310:1501:20:15.7501:20:15.75+00:27:0013:224.5
52TEPER Jacek 755ALKOHIMALAIŚCI !Open Mężczyzn460M 59910:1501:20:31.0501:20:31.05+00:27:1613:254.5
53KORCZYŃSKI Norbert 825Open Mężczyzn484M 62610:1501:21:30.5501:21:30.55+00:28:1513:354.4
54OSMÓLSKA Magda 841Open Kobiet31K 4110:1501:22:36.1001:22:36.10+00:29:2113:464.4
55DZIĘGIELOWSKI Łukasz 818Open Mężczyzn500M 64810:1501:22:36.4001:22:36.40+00:29:2113:464.4
56SOCHALA Szymon 788ŁOWICZ TEAMOpen Mężczyzn512M 66110:1501:23:08.6501:23:08.65+00:29:5313:514.3
57SOŁODUCHA Sebastian 758AMIGOS WARSZAWAOpen Mężczyzn514M 66310:1501:23:11.0501:23:11.05+00:29:5613:514.3
58PIOTROWSKI Bartek 757AMIGOS WARSZAWAOpen Mężczyzn515M 66410:1501:23:11.3001:23:11.30+00:29:5613:514.3
59PIOTROWSKA Olga 756AMIGOS WARSZAWAOpen Kobiet35K 4510:1501:23:12.7501:23:12.75+00:29:5713:524.3
60JANISZEWSKA Katarzyna 820Open Kobiet40K 5010:1501:24:34.0501:24:34.05+00:31:1914:054.3
61SZRENIAWA-SZTAJNERT Artur 852Open Mężczyzn552M 70710:1501:24:35.3001:24:35.30+00:31:2014:054.3
62FRANKOWSKI Michał 781LODOŻERCYOpen Mężczyzn558M 71410:1501:24:50.2501:24:50.25+00:31:3514:084.2
63PAWŁOWSKI Karol 784LODOŻERCYOpen Masters Mężczyzn67M 71710:1501:24:59.2001:24:59.20+00:31:4414:094.2
64NOWACZYK Grzegorz 783LODOŻERCYOpen Masters Mężczyzn68M 72010:1501:25:04.4001:25:04.40+00:31:4914:104.2
65KRUPIENKO Tomasz 782LODOŻERCYOpen Mężczyzn563M 72210:1501:25:05.7001:25:05.70+00:31:5014:104.2
66ŚRAMSKI Mikołaj 785LODOŻERCYOpen Mężczyzn564M 72310:1501:25:05.8501:25:05.85+00:31:5114:104.2
67KAŹMIERCZAK Dariusz 823Open Mężczyzn612M 77510:1501:26:58.8001:26:58.80+00:33:4314:294.1
68BARANOWICZ Piotr 810Open Mężczyzn613M 77610:1501:26:59.0001:26:59.00+00:33:4414:294.1
69PODLASIŃSKI Łukasz 844Open Mężczyzn618M 78110:1501:27:19.9001:27:19.90+00:34:0514:334.1
70PODLASIŃSKI Kamil 843Open Mężczyzn620M 78410:1501:27:26.1501:27:26.15+00:34:1114:344.1
71MATYSEK Ireneusz 837Open Masters Mężczyzn75M 80210:1501:28:17.8501:28:17.85+00:35:0314:424.1
72MALANOWSKA Aleksandra 538HUSARIA RACE TEAMOpen Kobiet56K 6810:1501:29:01.5501:29:01.55+00:35:4614:504
73KOSIŃSKA Edyta 772HUSARIA RACE TEAMOpen Masters Kobiet5K 6910:1501:29:06.0501:29:06.05+00:35:5114:514
74BOŚKA Patryk 802NIEPRZYGOTOWANIOpen Mężczyzn674M 84710:1501:30:11.5501:30:11.55+00:36:5615:014
75MACIASZCZYK Mateusz 803NIEPRZYGOTOWANI Open Mężczyzn675M 84810:1501:30:11.7501:30:11.75+00:36:5615:014
76MAŁKIEWICZ Karolina 835Open Kobiet70K 8310:1501:30:24.9001:30:24.90+00:37:1015:044
77WLAZŁO Michał 856Open Mężczyzn681M 85410:1501:30:25.0001:30:25.00+00:37:1015:044
78MACIEJEWSKI Krystian 833Open Mężczyzn682M 85510:1501:30:28.8001:30:28.80+00:37:1315:044
79KURZAWSKI Dariusz 829Open Mężczyzn709M 88310:1501:31:27.2501:31:27.25+00:38:1215:143.9
80MARMUCKI Tomasz 836Open Mężczyzn792M 98510:1501:37:32.8001:37:32.80+00:44:1716:153.7
81LINOWSKI Grzegorz 775HUSARIA RACE TEAMOpen Mężczyzn803M 99610:1501:38:33.2001:38:33.20+00:45:1816:253.7
82LINOWSK Ela 774HUSARIA RACE TEAMOpen Kobiet116K 13910:1501:38:35.0001:38:35.00+00:45:2016:253.7
83SZEWCZYK Katarzyna 798MONKEYS' TEAMOpen Masters Kobiet16K 14510:1501:39:53.8501:39:53.85+00:46:3916:383.6
84BURAK Ewelina 789MONKEYS' TEAMOpen Kobiet122K 14610:1501:39:55.7001:39:55.70+00:46:4016:393.6
85SURDACKA Edyta 797MONKEYS' TEAMOpen Kobiet123K 14710:1501:39:56.9001:39:56.90+00:46:4216:393.6
86SZUMNA Aleksandra 800MONKEYS' TEAMOpen Kobiet124K 14810:1501:39:57.0001:39:57.00+00:46:4216:393.6
87KOPEĆ Kamil 792MONKEYS' TEAMOpen Mężczyzn822M 101710:1501:39:59.0501:39:59.05+00:46:4416:393.6
88PĘCAK Agnieszka 796MONKEYS' TEAMOpen Masters Kobiet17K 14910:1501:39:59.8501:39:59.85+00:46:4516:393.6
89MICHOTEK-TARASIUK Karolina 795MONKEYS' TEAMOpen Kobiet126K 15110:1501:40:08.3001:40:08.30+00:46:5316:413.6
90SZKUTNICKA Monika 799MONKEYS' TEAMOpen Kobiet127K 15210:1501:40:09.2501:40:09.25+00:46:5416:413.6
91KOPEĆ Łukasz 793MONKEYS' TEAMOpen Mężczyzn825M 102210:1501:40:13.9501:40:13.95+00:46:5916:423.6
92SOBCZYK Barbara 776HUSARIA RACE TEAMOpen Kobiet139K 16510:1501:43:08.1001:43:08.10+00:49:5317:113.5
93KAŁKOWSKA Karolina 822Open Masters Kobiet19K 16610:1501:43:09.2501:43:09.25+00:49:5417:113.5
94ZUPA Aleksandra 860Open Kobiet140K 16710:1501:43:09.5001:43:09.50+00:49:5417:113.5
95MALEŃCZYK Sylwester 834Open Mężczyzn845M 104710:1501:43:11.5501:43:11.55+00:49:5617:113.5
96JACHIRA Krzysztof 768GRYF TEAMOpen Mężczyzn855M 105810:1501:44:56.8501:44:56.85+00:51:4217:293.4
97KRAJEWSKI Grzegorz 826Open Mężczyzn862M 106510:1501:45:11.8501:45:11.85+00:51:5717:313.4
98CZEKAJ Karolina 815Open Kobiet151K 17910:1501:46:17.2001:46:17.20+00:53:0217:423.4
99WÓJCIK Paweł 858Open Mężczyzn873M 107910:1501:46:28.9501:46:28.95+00:53:1417:443.4
100NIECZYPOR Tomasz 840Open Mężczyzn880M 108710:1501:48:01.5501:48:01.55+00:54:4618:003.3
101OSIEWICZ Piotr 765GASTROBEJEOpen Mężczyzn908M 111610:1501:54:33.6001:54:33.60+01:01:1819:053.1
102ROGUSZEWSKI Mateusz 767GASTROBEJEOpen Mężczyzn909M 111710:1501:54:34.0501:54:34.05+01:01:1919:053.1
103KSIĘŻAK Adrianna 764GASTROBEJEOpen Kobiet183K 21310:1501:54:34.6501:54:34.65+01:01:1919:053.1
POZORSKI Tomasz 846Open Mężczyzn10:15 DNF DNF--
NOWICKI Paweł 780JEDZIEMY Z TYM KOKSEMOpen Mężczyzn10:15 DNF DNF--
Znaleziono 105 wynik(ów)